sensor_id;sensor_type;location;lat;lon;timestamp;P1;durP1;ratioP1;P2;durP2;ratioP2
19043;SDS011;9654;52.302;8.120;2023-04-25T00:00:12;17.73;;;6.00;;
19043;SDS011;9654;52.302;8.120;2023-04-25T00:02:40;17.50;;;5.73;;
19043;SDS011;9654;52.302;8.120;2023-04-25T00:05:07;20.20;;;6.13;;
19043;SDS011;9654;52.302;8.120;2023-04-25T00:07:35;15.77;;;5.87;;
19043;SDS011;9654;52.302;8.120;2023-04-25T00:10:03;19.27;;;6.00;;
19043;SDS011;9654;52.302;8.120;2023-04-25T00:12:31;24.33;;;5.73;;
19043;SDS011;9654;52.302;8.120;2023-04-25T00:14:58;15.23;;;6.33;;
19043;SDS011;9654;52.302;8.120;2023-04-25T00:17:25;21.90;;;7.00;;
19043;SDS011;9654;52.302;8.120;2023-04-25T00:19:52;20.73;;;8.00;;
19043;SDS011;9654;52.302;8.120;2023-04-25T00:22:18;18.27;;;7.97;;
19043;SDS011;9654;52.302;8.120;2023-04-25T00:24:45;19.83;;;8.47;;
19043;SDS011;9654;52.302;8.120;2023-04-25T00:27:13;24.13;;;9.13;;
19043;SDS011;9654;52.302;8.120;2023-04-25T00:29:40;17.17;;;8.47;;
19043;SDS011;9654;52.302;8.120;2023-04-25T00:32:07;18.97;;;8.97;;
19043;SDS011;9654;52.302;8.120;2023-04-25T00:34:33;14.43;;;8.20;;
19043;SDS011;9654;52.302;8.120;2023-04-25T00:37:01;19.17;;;8.53;;
19043;SDS011;9654;52.302;8.120;2023-04-25T00:39:27;21.97;;;7.63;;
19043;SDS011;9654;52.302;8.120;2023-04-25T00:41:54;15.40;;;7.07;;
19043;SDS011;9654;52.302;8.120;2023-04-25T00:44:22;15.33;;;6.87;;
19043;SDS011;9654;52.302;8.120;2023-04-25T00:46:53;18.43;;;6.33;;
19043;SDS011;9654;52.302;8.120;2023-04-25T00:49:20;17.67;;;4.77;;
19043;SDS011;9654;52.302;8.120;2023-04-25T00:51:47;12.97;;;5.20;;
19043;SDS011;9654;52.302;8.120;2023-04-25T00:54:14;15.50;;;5.47;;
19043;SDS011;9654;52.302;8.120;2023-04-25T00:56:42;18.80;;;5.57;;
19043;SDS011;9654;52.302;8.120;2023-04-25T00:59:10;11.43;;;4.30;;
19043;SDS011;9654;52.302;8.120;2023-04-25T01:01:39;14.27;;;4.90;;
19043;SDS011;9654;52.302;8.120;2023-04-25T01:04:07;13.43;;;4.97;;
19043;SDS011;9654;52.302;8.120;2023-04-25T01:06:33;13.77;;;5.13;;
19043;SDS011;9654;52.302;8.120;2023-04-25T01:09:00;16.43;;;4.40;;
19043;SDS011;9654;52.302;8.120;2023-04-25T01:11:28;21.17;;;6.00;;
19043;SDS011;9654;52.302;8.120;2023-04-25T01:13:55;14.83;;;5.47;;
19043;SDS011;9654;52.302;8.120;2023-04-25T01:16:23;15.33;;;5.03;;
19043;SDS011;9654;52.302;8.120;2023-04-25T01:18:51;16.77;;;4.80;;
19043;SDS011;9654;52.302;8.120;2023-04-25T01:21:19;18.30;;;5.13;;
19043;SDS011;9654;52.302;8.120;2023-04-25T01:23:46;16.73;;;4.77;;
19043;SDS011;9654;52.302;8.120;2023-04-25T01:26:13;14.87;;;4.60;;
19043;SDS011;9654;52.302;8.120;2023-04-25T01:28:40;18.77;;;5.77;;
19043;SDS011;9654;52.302;8.120;2023-04-25T01:31:07;18.07;;;4.50;;
19043;SDS011;9654;52.302;8.120;2023-04-25T01:33:35;16.07;;;4.80;;
19043;SDS011;9654;52.302;8.120;2023-04-25T01:36:03;21.10;;;4.80;;
19043;SDS011;9654;52.302;8.120;2023-04-25T01:38:32;21.93;;;5.57;;
19043;SDS011;9654;52.302;8.120;2023-04-25T01:41:00;20.20;;;4.50;;
19043;SDS011;9654;52.302;8.120;2023-04-25T01:43:26;28.60;;;5.43;;
19043;SDS011;9654;52.302;8.120;2023-04-25T01:45:53;26.23;;;5.87;;
19043;SDS011;9654;52.302;8.120;2023-04-25T01:48:21;27.13;;;7.03;;
19043;SDS011;9654;52.302;8.120;2023-04-25T01:50:48;26.60;;;5.60;;
19043;SDS011;9654;52.302;8.120;2023-04-25T01:53:14;30.17;;;5.33;;
19043;SDS011;9654;52.302;8.120;2023-04-25T01:55:43;22.17;;;5.37;;
19043;SDS011;9654;52.302;8.120;2023-04-25T01:58:10;23.23;;;5.80;;
19043;SDS011;9654;52.302;8.120;2023-04-25T02:00:38;32.27;;;6.07;;
19043;SDS011;9654;52.302;8.120;2023-04-25T02:03:05;30.77;;;7.80;;
19043;SDS011;9654;52.302;8.120;2023-04-25T02:05:36;20.40;;;5.83;;
19043;SDS011;9654;52.302;8.120;2023-04-25T02:08:04;17.80;;;5.57;;
19043;SDS011;9654;52.302;8.120;2023-04-25T02:10:32;21.00;;;4.87;;
19043;SDS011;9654;52.302;8.120;2023-04-25T02:13:00;22.23;;;6.23;;
19043;SDS011;9654;52.302;8.120;2023-04-25T02:15:28;22.20;;;5.50;;
19043;SDS011;9654;52.302;8.120;2023-04-25T02:17:55;27.03;;;5.87;;
19043;SDS011;9654;52.302;8.120;2023-04-25T02:20:23;29.03;;;5.30;;
19043;SDS011;9654;52.302;8.120;2023-04-25T02:22:50;19.07;;;5.20;;
19043;SDS011;9654;52.302;8.120;2023-04-25T02:25:18;22.73;;;4.73;;
19043;SDS011;9654;52.302;8.120;2023-04-25T02:27:46;27.50;;;5.90;;
19043;SDS011;9654;52.302;8.120;2023-04-25T02:30:15;20.00;;;5.13;;
19043;SDS011;9654;52.302;8.120;2023-04-25T02:32:42;31.70;;;5.87;;
19043;SDS011;9654;52.302;8.120;2023-04-25T02:35:09;39.97;;;6.50;;
19043;SDS011;9654;52.302;8.120;2023-04-25T02:37:36;24.67;;;6.17;;
19043;SDS011;9654;52.302;8.120;2023-04-25T02:40:05;20.50;;;5.67;;
19043;SDS011;9654;52.302;8.120;2023-04-25T02:42:33;24.37;;;5.20;;
19043;SDS011;9654;52.302;8.120;2023-04-25T02:45:00;32.83;;;5.57;;
19043;SDS011;9654;52.302;8.120;2023-04-25T02:47:28;30.20;;;6.13;;
19043;SDS011;9654;52.302;8.120;2023-04-25T02:49:55;26.20;;;5.20;;
19043;SDS011;9654;52.302;8.120;2023-04-25T02:52:22;30.80;;;6.27;;
19043;SDS011;9654;52.302;8.120;2023-04-25T02:54:49;28.70;;;5.90;;
19043;SDS011;9654;52.302;8.120;2023-04-25T02:57:16;18.83;;;4.70;;
19043;SDS011;9654;52.302;8.120;2023-04-25T02:59:43;30.80;;;4.83;;
19043;SDS011;9654;52.302;8.120;2023-04-25T03:02:10;22.33;;;5.00;;
19043;SDS011;9654;52.302;8.120;2023-04-25T03:04:38;24.13;;;4.57;;
19043;SDS011;9654;52.302;8.120;2023-04-25T03:07:05;22.20;;;5.47;;
19043;SDS011;9654;52.302;8.120;2023-04-25T03:09:31;21.70;;;4.93;;
19043;SDS011;9654;52.302;8.120;2023-04-25T03:11:58;25.07;;;4.33;;
19043;SDS011;9654;52.302;8.120;2023-04-25T03:14:25;16.97;;;4.47;;
19043;SDS011;9654;52.302;8.120;2023-04-25T03:16:52;22.57;;;4.77;;
19043;SDS011;9654;52.302;8.120;2023-04-25T03:19:19;29.60;;;4.97;;
19043;SDS011;9654;52.302;8.120;2023-04-25T03:21:47;28.30;;;7.13;;
19043;SDS011;9654;52.302;8.120;2023-04-25T03:24:14;18.97;;;5.47;;
19043;SDS011;9654;52.302;8.120;2023-04-25T03:26:40;22.27;;;5.30;;
19043;SDS011;9654;52.302;8.120;2023-04-25T03:29:07;18.17;;;4.90;;
19043;SDS011;9654;52.302;8.120;2023-04-25T03:31:34;17.30;;;4.40;;
19043;SDS011;9654;52.302;8.120;2023-04-25T03:34:01;23.73;;;5.30;;
19043;SDS011;9654;52.302;8.120;2023-04-25T03:36:28;26.20;;;6.23;;
19043;SDS011;9654;52.302;8.120;2023-04-25T03:38:56;21.60;;;5.37;;
19043;SDS011;9654;52.302;8.120;2023-04-25T03:41:23;20.70;;;5.37;;
19043;SDS011;9654;52.302;8.120;2023-04-25T03:43:50;23.97;;;5.43;;
19043;SDS011;9654;52.302;8.120;2023-04-25T03:46:16;20.00;;;4.73;;
19043;SDS011;9654;52.302;8.120;2023-04-25T03:48:43;27.40;;;5.27;;
19043;SDS011;9654;52.302;8.120;2023-04-25T03:51:10;15.07;;;5.00;;
19043;SDS011;9654;52.302;8.120;2023-04-25T03:53:37;22.83;;;5.60;;
19043;SDS011;9654;52.302;8.120;2023-04-25T03:56:05;29.23;;;5.90;;
19043;SDS011;9654;52.302;8.120;2023-04-25T03:58:32;22.20;;;5.37;;
19043;SDS011;9654;52.302;8.120;2023-04-25T04:00:59;23.40;;;6.37;;
19043;SDS011;9654;52.302;8.120;2023-04-25T04:03:28;19.47;;;4.93;;
19043;SDS011;9654;52.302;8.120;2023-04-25T04:05:54;28.57;;;7.57;;
19043;SDS011;9654;52.302;8.120;2023-04-25T04:08:21;32.63;;;6.03;;
19043;SDS011;9654;52.302;8.120;2023-04-25T04:10:48;23.77;;;6.20;;
19043;SDS011;9654;52.302;8.120;2023-04-25T04:13:16;31.60;;;7.27;;
19043;SDS011;9654;52.302;8.120;2023-04-25T04:15:43;24.33;;;4.93;;
19043;SDS011;9654;52.302;8.120;2023-04-25T04:18:10;17.30;;;5.23;;
19043;SDS011;9654;52.302;8.120;2023-04-25T04:20:36;31.20;;;6.10;;
19043;SDS011;9654;52.302;8.120;2023-04-25T04:23:03;23.53;;;6.27;;
19043;SDS011;9654;52.302;8.120;2023-04-25T04:25:30;27.87;;;6.40;;
19043;SDS011;9654;52.302;8.120;2023-04-25T04:27:57;22.30;;;6.43;;
19043;SDS011;9654;52.302;8.120;2023-04-25T04:30:25;15.17;;;5.10;;
19043;SDS011;9654;52.302;8.120;2023-04-25T04:32:54;27.87;;;6.40;;
19043;SDS011;9654;52.302;8.120;2023-04-25T04:35:21;28.87;;;6.13;;
19043;SDS011;9654;52.302;8.120;2023-04-25T04:37:48;24.20;;;5.50;;
19043;SDS011;9654;52.302;8.120;2023-04-25T04:40:15;22.70;;;5.97;;
19043;SDS011;9654;52.302;8.120;2023-04-25T04:42:43;30.87;;;5.53;;
19043;SDS011;9654;52.302;8.120;2023-04-25T04:45:11;21.50;;;4.80;;
19043;SDS011;9654;52.302;8.120;2023-04-25T04:47:39;17.20;;;5.00;;
19043;SDS011;9654;52.302;8.120;2023-04-25T04:50:06;19.07;;;5.80;;
19043;SDS011;9654;52.302;8.120;2023-04-25T04:52:34;24.13;;;5.93;;
19043;SDS011;9654;52.302;8.120;2023-04-25T04:55:01;23.53;;;6.07;;
19043;SDS011;9654;52.302;8.120;2023-04-25T04:57:28;30.13;;;5.70;;
19043;SDS011;9654;52.302;8.120;2023-04-25T04:59:56;20.50;;;4.90;;
19043;SDS011;9654;52.302;8.120;2023-04-25T05:02:22;15.80;;;4.60;;
19043;SDS011;9654;52.302;8.120;2023-04-25T05:04:51;17.30;;;5.13;;
19043;SDS011;9654;52.302;8.120;2023-04-25T05:07:17;17.80;;;4.67;;
19043;SDS011;9654;52.302;8.120;2023-04-25T05:09:44;22.70;;;5.40;;
19043;SDS011;9654;52.302;8.120;2023-04-25T05:12:11;29.20;;;5.30;;
19043;SDS011;9654;52.302;8.120;2023-04-25T05:14:38;22.73;;;5.17;;
19043;SDS011;9654;52.302;8.120;2023-04-25T05:17:05;18.03;;;5.53;;
19043;SDS011;9654;52.302;8.120;2023-04-25T05:19:33;23.87;;;4.97;;
19043;SDS011;9654;52.302;8.120;2023-04-25T05:22:01;22.97;;;5.70;;
19043;SDS011;9654;52.302;8.120;2023-04-25T05:24:28;31.60;;;7.63;;
19043;SDS011;9654;52.302;8.120;2023-04-25T05:26:55;28.47;;;6.97;;
19043;SDS011;9654;52.302;8.120;2023-04-25T05:29:22;30.73;;;9.07;;
19043;SDS011;9654;52.302;8.120;2023-04-25T05:31:49;29.67;;;9.10;;
19043;SDS011;9654;52.302;8.120;2023-04-25T05:34:15;31.00;;;8.57;;
19043;SDS011;9654;52.302;8.120;2023-04-25T05:36:42;28.03;;;7.87;;
19043;SDS011;9654;52.302;8.120;2023-04-25T05:39:10;26.53;;;8.50;;
19043;SDS011;9654;52.302;8.120;2023-04-25T05:41:37;25.50;;;7.70;;
19043;SDS011;9654;52.302;8.120;2023-04-25T05:44:04;29.40;;;7.50;;
19043;SDS011;9654;52.302;8.120;2023-04-25T05:46:31;24.70;;;8.03;;
19043;SDS011;9654;52.302;8.120;2023-04-25T05:48:58;32.30;;;6.93;;
19043;SDS011;9654;52.302;8.120;2023-04-25T05:51:25;22.43;;;7.20;;
19043;SDS011;9654;52.302;8.120;2023-04-25T05:53:52;20.77;;;7.27;;
19043;SDS011;9654;52.302;8.120;2023-04-25T05:56:20;27.30;;;6.50;;
19043;SDS011;9654;52.302;8.120;2023-04-25T05:58:47;23.73;;;5.70;;
19043;SDS011;9654;52.302;8.120;2023-04-25T06:01:14;25.10;;;7.30;;
19043;SDS011;9654;52.302;8.120;2023-04-25T06:03:41;24.63;;;5.43;;
19043;SDS011;9654;52.302;8.120;2023-04-25T06:06:08;21.23;;;6.07;;
19043;SDS011;9654;52.302;8.120;2023-04-25T06:08:35;15.87;;;5.03;;
19043;SDS011;9654;52.302;8.120;2023-04-25T06:11:02;29.07;;;6.20;;
19043;SDS011;9654;52.302;8.120;2023-04-25T06:13:30;19.63;;;4.60;;
19043;SDS011;9654;52.302;8.120;2023-04-25T06:15:57;18.47;;;4.40;;
19043;SDS011;9654;52.302;8.120;2023-04-25T06:18:24;20.27;;;5.33;;
19043;SDS011;9654;52.302;8.120;2023-04-25T06:20:51;23.03;;;4.77;;
19043;SDS011;9654;52.302;8.120;2023-04-25T06:23:17;17.13;;;4.23;;
19043;SDS011;9654;52.302;8.120;2023-04-25T06:25:44;17.87;;;4.03;;
19043;SDS011;9654;52.302;8.120;2023-04-25T06:28:11;24.10;;;4.10;;
19043;SDS011;9654;52.302;8.120;2023-04-25T06:30:39;23.40;;;5.30;;
19043;SDS011;9654;52.302;8.120;2023-04-25T06:33:06;23.93;;;4.07;;
19043;SDS011;9654;52.302;8.120;2023-04-25T06:35:34;19.70;;;4.17;;
19043;SDS011;9654;52.302;8.120;2023-04-25T06:38:01;20.23;;;5.03;;
19043;SDS011;9654;52.302;8.120;2023-04-25T06:40:27;22.03;;;4.73;;
19043;SDS011;9654;52.302;8.120;2023-04-25T06:42:54;16.90;;;3.90;;
19043;SDS011;9654;52.302;8.120;2023-04-25T06:45:21;18.27;;;3.73;;
19043;SDS011;9654;52.302;8.120;2023-04-25T06:47:49;14.67;;;3.90;;
19043;SDS011;9654;52.302;8.120;2023-04-25T06:50:16;19.40;;;3.70;;
19043;SDS011;9654;52.302;8.120;2023-04-25T06:52:42;16.97;;;3.80;;
19043;SDS011;9654;52.302;8.120;2023-04-25T06:55:09;17.33;;;3.37;;
19043;SDS011;9654;52.302;8.120;2023-04-25T06:57:36;22.00;;;3.70;;
19043;SDS011;9654;52.302;8.120;2023-04-25T07:00:03;15.57;;;3.90;;
19043;SDS011;9654;52.302;8.120;2023-04-25T07:02:33;19.03;;;3.63;;
19043;SDS011;9654;52.302;8.120;2023-04-25T07:05:02;11.30;;;2.97;;
19043;SDS011;9654;52.302;8.120;2023-04-25T07:07:29;16.70;;;4.43;;
19043;SDS011;9654;52.302;8.120;2023-04-25T07:09:56;14.27;;;3.90;;
19043;SDS011;9654;52.302;8.120;2023-04-25T07:12:23;15.40;;;3.23;;
19043;SDS011;9654;52.302;8.120;2023-04-25T07:14:49;17.67;;;4.13;;
19043;SDS011;9654;52.302;8.120;2023-04-25T07:17:16;19.47;;;4.70;;
19043;SDS011;9654;52.302;8.120;2023-04-25T07:19:43;18.40;;;4.60;;
19043;SDS011;9654;52.302;8.120;2023-04-25T07:22:11;15.23;;;4.00;;
19043;SDS011;9654;52.302;8.120;2023-04-25T07:24:38;19.30;;;3.73;;
19043;SDS011;9654;52.302;8.120;2023-04-25T07:27:05;15.53;;;4.00;;
19043;SDS011;9654;52.302;8.120;2023-04-25T07:29:32;18.50;;;3.70;;
19043;SDS011;9654;52.302;8.120;2023-04-25T07:32:02;12.30;;;3.07;;
19043;SDS011;9654;52.302;8.120;2023-04-25T07:34:29;13.23;;;2.47;;
19043;SDS011;9654;52.302;8.120;2023-04-25T07:36:57;12.50;;;2.57;;
19043;SDS011;9654;52.302;8.120;2023-04-25T07:39:25;13.33;;;2.50;;
19043;SDS011;9654;52.302;8.120;2023-04-25T07:41:52;10.53;;;2.53;;
19043;SDS011;9654;52.302;8.120;2023-04-25T07:44:19;15.00;;;3.60;;
19043;SDS011;9654;52.302;8.120;2023-04-25T07:46:46;12.33;;;3.20;;
19043;SDS011;9654;52.302;8.120;2023-04-25T07:49:13;9.50;;;2.60;;
19043;SDS011;9654;52.302;8.120;2023-04-25T07:51:40;13.33;;;2.80;;
19043;SDS011;9654;52.302;8.120;2023-04-25T07:54:08;12.40;;;3.40;;
19043;SDS011;9654;52.302;8.120;2023-04-25T07:56:36;15.37;;;3.70;;
19043;SDS011;9654;52.302;8.120;2023-04-25T07:59:03;16.47;;;4.10;;
19043;SDS011;9654;52.302;8.120;2023-04-25T08:01:30;14.03;;;4.07;;
19043;SDS011;9654;52.302;8.120;2023-04-25T08:03:57;12.40;;;2.70;;
19043;SDS011;9654;52.302;8.120;2023-04-25T08:06:23;11.93;;;3.03;;
19043;SDS011;9654;52.302;8.120;2023-04-25T08:08:50;13.17;;;4.33;;
19043;SDS011;9654;52.302;8.120;2023-04-25T08:11:17;12.60;;;3.00;;
19043;SDS011;9654;52.302;8.120;2023-04-25T08:13:45;11.27;;;2.73;;
19043;SDS011;9654;52.302;8.120;2023-04-25T08:16:12;10.67;;;2.23;;
19043;SDS011;9654;52.302;8.120;2023-04-25T08:18:38;16.43;;;3.00;;
19043;SDS011;9654;52.302;8.120;2023-04-25T08:21:05;9.03;;;1.90;;
19043;SDS011;9654;52.302;8.120;2023-04-25T08:23:33;9.63;;;2.30;;
19043;SDS011;9654;52.302;8.120;2023-04-25T08:26:00;10.40;;;2.40;;
19043;SDS011;9654;52.302;8.120;2023-04-25T08:28:28;10.13;;;2.10;;
19043;SDS011;9654;52.302;8.120;2023-04-25T08:30:56;12.40;;;2.30;;
19043;SDS011;9654;52.302;8.120;2023-04-25T08:33:23;3.57;;;1.63;;
19043;SDS011;9654;52.302;8.120;2023-04-25T08:35:50;6.80;;;2.27;;
19043;SDS011;9654;52.302;8.120;2023-04-25T08:38:16;16.73;;;3.83;;
19043;SDS011;9654;52.302;8.120;2023-04-25T08:40:45;7.67;;;2.27;;
19043;SDS011;9654;52.302;8.120;2023-04-25T08:43:16;10.27;;;2.07;;
19043;SDS011;9654;52.302;8.120;2023-04-25T08:45:45;6.10;;;2.13;;
19043;SDS011;9654;52.302;8.120;2023-04-25T08:48:15;12.77;;;2.20;;
19043;SDS011;9654;52.302;8.120;2023-04-25T08:50:45;11.63;;;2.07;;
19043;SDS011;9654;52.302;8.120;2023-04-25T08:53:16;9.87;;;1.87;;
19043;SDS011;9654;52.302;8.120;2023-04-25T08:55:47;7.07;;;1.60;;
19043;SDS011;9654;52.302;8.120;2023-04-25T08:58:15;16.93;;;2.13;;
19043;SDS011;9654;52.302;8.120;2023-04-25T09:00:45;8.73;;;1.73;;
19043;SDS011;9654;52.302;8.120;2023-04-25T09:03:12;8.43;;;1.60;;
19043;SDS011;9654;52.302;8.120;2023-04-25T09:05:41;17.73;;;3.80;;
19043;SDS011;9654;52.302;8.120;2023-04-25T09:08:08;5.17;;;1.60;;
19043;SDS011;9654;52.302;8.120;2023-04-25T09:10:35;8.43;;;1.63;;
19043;SDS011;9654;52.302;8.120;2023-04-25T09:13:03;3.50;;;1.53;;
19043;SDS011;9654;52.302;8.120;2023-04-25T09:15:32;9.00;;;2.10;;
19043;SDS011;9654;52.302;8.120;2023-04-25T09:17:59;8.53;;;1.80;;
19043;SDS011;9654;52.302;8.120;2023-04-25T09:20:26;5.80;;;1.67;;
19043;SDS011;9654;52.302;8.120;2023-04-25T09:23:05;6.10;;;1.90;;
19043;SDS011;9654;52.302;8.120;2023-04-25T09:25:35;6.33;;;1.80;;
19043;SDS011;9654;52.302;8.120;2023-04-25T09:28:04;8.50;;;1.93;;
19043;SDS011;9654;52.302;8.120;2023-04-25T09:30:32;5.13;;;1.53;;
19043;SDS011;9654;52.302;8.120;2023-04-25T09:33:03;6.83;;;1.67;;
19043;SDS011;9654;52.302;8.120;2023-04-25T09:35:35;10.13;;;1.60;;
19043;SDS011;9654;52.302;8.120;2023-04-25T09:38:07;9.77;;;1.70;;
19043;SDS011;9654;52.302;8.120;2023-04-25T09:40:38;6.40;;;1.53;;
19043;SDS011;9654;52.302;8.120;2023-04-25T09:43:08;6.47;;;1.20;;
19043;SDS011;9654;52.302;8.120;2023-04-25T09:45:45;7.00;;;1.70;;
19043;SDS011;9654;52.302;8.120;2023-04-25T09:48:16;7.07;;;1.50;;
19043;SDS011;9654;52.302;8.120;2023-04-25T09:50:44;7.37;;;1.33;;
19043;SDS011;9654;52.302;8.120;2023-04-25T09:53:13;4.20;;;1.50;;
19043;SDS011;9654;52.302;8.120;2023-04-25T09:55:39;4.27;;;1.43;;
19043;SDS011;9654;52.302;8.120;2023-04-25T09:58:09;8.63;;;1.80;;
19043;SDS011;9654;52.302;8.120;2023-04-25T10:00:38;6.83;;;1.60;;
19043;SDS011;9654;52.302;8.120;2023-04-25T10:03:07;3.37;;;1.30;;
19043;SDS011;9654;52.302;8.120;2023-04-25T10:05:34;5.47;;;1.37;;
19043;SDS011;9654;52.302;8.120;2023-04-25T10:08:02;7.93;;;1.83;;
19043;SDS011;9654;52.302;8.120;2023-04-25T10:10:31;7.13;;;2.03;;
19043;SDS011;9654;52.302;8.120;2023-04-25T10:13:02;6.47;;;1.83;;
19043;SDS011;9654;52.302;8.120;2023-04-25T10:15:34;8.53;;;1.70;;
19043;SDS011;9654;52.302;8.120;2023-04-25T10:18:02;4.07;;;1.70;;
19043;SDS011;9654;52.302;8.120;2023-04-25T10:20:29;5.67;;;1.83;;
19043;SDS011;9654;52.302;8.120;2023-04-25T10:22:58;5.17;;;1.97;;
19043;SDS011;9654;52.302;8.120;2023-04-25T10:25:41;10.57;;;2.40;;
19043;SDS011;9654;52.302;8.120;2023-04-25T10:28:08;6.90;;;1.77;;
19043;SDS011;9654;52.302;8.120;2023-04-25T10:30:35;6.00;;;1.70;;
19043;SDS011;9654;52.302;8.120;2023-04-25T10:33:02;7.47;;;2.03;;
19043;SDS011;9654;52.302;8.120;2023-04-25T10:35:43;7.83;;;2.37;;
19043;SDS011;9654;52.302;8.120;2023-04-25T10:38:13;8.03;;;3.17;;
19043;SDS011;9654;52.302;8.120;2023-04-25T10:40:42;4.37;;;1.50;;
19043;SDS011;9654;52.302;8.120;2023-04-25T10:43:39;8.77;;;1.80;;
19043;SDS011;9654;52.302;8.120;2023-04-25T10:46:19;9.40;;;1.80;;
19043;SDS011;9654;52.302;8.120;2023-04-25T10:48:49;5.97;;;1.40;;
19043;SDS011;9654;52.302;8.120;2023-04-25T12:24:58;3.53;;;1.17;;
19043;SDS011;9654;52.302;8.120;2023-04-25T12:27:30;2.23;;;0.87;;
19043;SDS011;9654;52.302;8.120;2023-04-25T12:30:23;4.93;;;0.90;;
19043;SDS011;9654;52.302;8.120;2023-04-25T12:33:35;5.07;;;0.90;;
19043;SDS011;9654;52.302;8.120;2023-04-25T12:36:18;4.97;;;1.50;;
19043;SDS011;9654;52.302;8.120;2023-04-25T12:39:15;3.97;;;1.07;;
19043;SDS011;9654;52.302;8.120;2023-04-25T12:42:13;1.93;;;0.70;;
19043;SDS011;9654;52.302;8.120;2023-04-25T12:45:15;2.20;;;0.90;;
19043;SDS011;9654;52.302;8.120;2023-04-25T12:54:12;2.13;;;1.40;;
19043;SDS011;9654;52.302;8.120;2023-04-25T12:57:00;4.30;;;0.97;;
19043;SDS011;9654;52.302;8.120;2023-04-25T13:00:01;1.63;;;0.80;;
19043;SDS011;9654;52.302;8.120;2023-04-25T13:03:27;1.63;;;1.00;;
19043;SDS011;9654;52.302;8.120;2023-04-25T13:05:43;7.10;;;1.50;;
19043;SDS011;9654;52.302;8.120;2023-04-25T13:11:46;6.53;;;1.60;;
19043;SDS011;9654;52.302;8.120;2023-04-25T13:14:18;2.83;;;1.07;;
19043;SDS011;9654;52.302;8.120;2023-04-25T13:16:52;2.40;;;0.90;;
19043;SDS011;9654;52.302;8.120;2023-04-25T13:19:32;6.03;;;1.33;;
19043;SDS011;9654;52.302;8.120;2023-04-25T13:22:01;4.83;;;1.20;;
19043;SDS011;9654;52.302;8.120;2023-04-25T13:24:31;5.33;;;1.13;;
19043;SDS011;9654;52.302;8.120;2023-04-25T13:27:06;2.67;;;1.43;;
19043;SDS011;9654;52.302;8.120;2023-04-25T13:32:47;1.93;;;1.07;;
19043;SDS011;9654;52.302;8.120;2023-04-25T13:35:24;2.30;;;1.10;;
19043;SDS011;9654;52.302;8.120;2023-04-25T13:41:14;4.77;;;0.90;;
19043;SDS011;9654;52.302;8.120;2023-04-25T13:43:59;4.50;;;0.90;;
19043;SDS011;9654;52.302;8.120;2023-04-25T13:46:31;3.97;;;1.10;;
19043;SDS011;9654;52.302;8.120;2023-04-25T13:49:23;6.70;;;1.70;;
19043;SDS011;9654;52.302;8.120;2023-04-25T13:52:12;2.33;;;1.00;;
19043;SDS011;9654;52.302;8.120;2023-04-25T13:54:50;2.90;;;1.50;;
19043;SDS011;9654;52.302;8.120;2023-04-25T13:57:41;3.93;;;1.33;;
19043;SDS011;9654;52.302;8.120;2023-04-25T14:00:14;2.93;;;1.30;;
19043;SDS011;9654;52.302;8.120;2023-04-25T14:02:47;7.37;;;1.30;;
19043;SDS011;9654;52.302;8.120;2023-04-25T14:05:19;3.60;;;1.10;;
19043;SDS011;9654;52.302;8.120;2023-04-25T14:07:50;4.47;;;1.00;;
19043;SDS011;9654;52.302;8.120;2023-04-25T14:10:31;5.93;;;2.60;;
19043;SDS011;9654;52.302;8.120;2023-04-25T14:12:58;3.67;;;2.23;;
19043;SDS011;9654;52.302;8.120;2023-04-25T14:15:34;3.30;;;1.20;;
19043;SDS011;9654;52.302;8.120;2023-04-25T14:18:05;2.33;;;0.80;;
19043;SDS011;9654;52.302;8.120;2023-04-25T14:20:37;3.00;;;1.17;;
19043;SDS011;9654;52.302;8.120;2023-04-25T14:23:05;1.80;;;0.80;;
19043;SDS011;9654;52.302;8.120;2023-04-25T14:25:32;2.30;;;0.80;;
19043;SDS011;9654;52.302;8.120;2023-04-25T14:28:03;3.10;;;1.00;;
19043;SDS011;9654;52.302;8.120;2023-04-25T14:30:49;4.60;;;1.30;;
19043;SDS011;9654;52.302;8.120;2023-04-25T14:33:25;3.83;;;1.37;;
19043;SDS011;9654;52.302;8.120;2023-04-25T14:39:52;4.03;;;1.00;;
19043;SDS011;9654;52.302;8.120;2023-04-25T15:15:49;5.03;;;1.27;;
19043;SDS011;9654;52.302;8.120;2023-04-25T15:18:21;5.43;;;1.40;;
19043;SDS011;9654;52.302;8.120;2023-04-25T15:20:53;3.53;;;1.10;;
19043;SDS011;9654;52.302;8.120;2023-04-25T15:23:20;5.43;;;1.40;;
19043;SDS011;9654;52.302;8.120;2023-04-25T15:25:49;6.70;;;1.30;;
19043;SDS011;9654;52.302;8.120;2023-04-25T15:28:31;1.90;;;0.90;;
19043;SDS011;9654;52.302;8.120;2023-04-25T15:34:54;2.07;;;0.87;;
19043;SDS011;9654;52.302;8.120;2023-04-25T15:53:34;8.37;;;1.77;;
19043;SDS011;9654;52.302;8.120;2023-04-25T16:35:56;7.53;;;1.87;;
19043;SDS011;9654;52.302;8.120;2023-04-25T16:38:23;3.10;;;1.17;;
19043;SDS011;9654;52.302;8.120;2023-04-25T16:40:52;6.93;;;1.70;;
19043;SDS011;9654;52.302;8.120;2023-04-25T16:43:22;4.03;;;1.53;;
19043;SDS011;9654;52.302;8.120;2023-04-25T16:45:51;3.77;;;1.40;;
19043;SDS011;9654;52.302;8.120;2023-04-25T16:48:20;3.03;;;1.10;;
19043;SDS011;9654;52.302;8.120;2023-04-25T16:50:48;3.10;;;1.13;;
19043;SDS011;9654;52.302;8.120;2023-04-25T16:53:16;3.63;;;1.37;;
19043;SDS011;9654;52.302;8.120;2023-04-25T16:55:43;4.63;;;1.83;;
19043;SDS011;9654;52.302;8.120;2023-04-25T16:58:11;6.60;;;1.17;;
19043;SDS011;9654;52.302;8.120;2023-04-25T17:00:38;3.60;;;1.50;;
19043;SDS011;9654;52.302;8.120;2023-04-25T17:03:05;7.73;;;1.70;;
19043;SDS011;9654;52.302;8.120;2023-04-25T17:05:32;5.27;;;1.40;;
19043;SDS011;9654;52.302;8.120;2023-04-25T17:08:00;4.43;;;1.30;;
19043;SDS011;9654;52.302;8.120;2023-04-25T17:10:29;2.77;;;1.07;;
19043;SDS011;9654;52.302;8.120;2023-04-25T17:12:55;4.53;;;1.20;;
19043;SDS011;9654;52.302;8.120;2023-04-25T17:15:22;2.30;;;1.13;;
19043;SDS011;9654;52.302;8.120;2023-04-25T17:17:49;4.30;;;2.07;;
19043;SDS011;9654;52.302;8.120;2023-04-25T17:20:16;3.17;;;1.13;;
19043;SDS011;9654;52.302;8.120;2023-04-25T17:22:43;6.00;;;1.60;;
19043;SDS011;9654;52.302;8.120;2023-04-25T17:25:10;7.40;;;1.20;;
19043;SDS011;9654;52.302;8.120;2023-04-25T17:27:38;6.27;;;1.63;;
19043;SDS011;9654;52.302;8.120;2023-04-25T17:30:05;7.20;;;1.30;;
19043;SDS011;9654;52.302;8.120;2023-04-25T17:32:32;7.97;;;1.50;;
19043;SDS011;9654;52.302;8.120;2023-04-25T17:34:59;7.13;;;1.47;;
19043;SDS011;9654;52.302;8.120;2023-04-25T17:37:26;5.33;;;1.83;;
19043;SDS011;9654;52.302;8.120;2023-04-25T17:39:53;7.93;;;1.60;;
19043;SDS011;9654;52.302;8.120;2023-04-25T17:42:19;6.43;;;1.50;;
19043;SDS011;9654;52.302;8.120;2023-04-25T17:44:48;4.80;;;1.90;;
19043;SDS011;9654;52.302;8.120;2023-04-25T17:47:14;6.03;;;1.50;;
19043;SDS011;9654;52.302;8.120;2023-04-25T17:49:41;5.00;;;1.50;;
19043;SDS011;9654;52.302;8.120;2023-04-25T17:52:08;5.23;;;1.70;;
19043;SDS011;9654;52.302;8.120;2023-04-25T17:54:35;6.80;;;1.43;;
19043;SDS011;9654;52.302;8.120;2023-04-25T17:57:02;11.13;;;1.90;;
19043;SDS011;9654;52.302;8.120;2023-04-25T17:59:29;6.50;;;1.30;;
19043;SDS011;9654;52.302;8.120;2023-04-25T18:01:57;5.40;;;1.67;;
19043;SDS011;9654;52.302;8.120;2023-04-25T18:04:24;4.93;;;1.70;;
19043;SDS011;9654;52.302;8.120;2023-04-25T18:06:51;2.97;;;1.50;;
19043;SDS011;9654;52.302;8.120;2023-04-25T18:09:22;4.60;;;1.73;;
19043;SDS011;9654;52.302;8.120;2023-04-25T18:11:50;5.97;;;1.70;;
19043;SDS011;9654;52.302;8.120;2023-04-25T18:14:18;6.87;;;2.00;;
19043;SDS011;9654;52.302;8.120;2023-04-25T18:16:46;4.20;;;1.53;;
19043;SDS011;9654;52.302;8.120;2023-04-25T18:19:18;3.00;;;1.63;;
19043;SDS011;9654;52.302;8.120;2023-04-25T18:21:46;5.00;;;1.80;;
19043;SDS011;9654;52.302;8.120;2023-04-25T18:24:14;10.93;;;2.43;;
19043;SDS011;9654;52.302;8.120;2023-04-25T18:26:42;7.20;;;1.83;;
19043;SDS011;9654;52.302;8.120;2023-04-25T18:29:09;5.10;;;1.90;;
19043;SDS011;9654;52.302;8.120;2023-04-25T18:31:37;7.63;;;2.17;;